createdAt,value
2023-10-09T00:01:28.972Z,101676.72
2023-10-09T00:03:57.940Z,101672.22
2023-10-09T00:06:38.701Z,101673.81
2023-10-09T00:09:20.756Z,101678.75
2023-10-09T00:11:49.611Z,101677.22
2023-10-09T00:14:19.978Z,101674.44
2023-10-09T00:16:49.975Z,101675.47
2023-10-09T00:19:22.054Z,101671.69
2023-10-09T00:21:52.859Z,101668.19
2023-10-09T00:24:25.100Z,101666.44
2023-10-09T00:26:56.904Z,101676.63
2023-10-09T00:29:27.548Z,101668.09
2023-10-09T00:32:04.597Z,101660.53
2023-10-09T00:34:40.718Z,101658.63
2023-10-09T00:37:14.530Z,101653.09
2023-10-09T00:39:45.447Z,101646.13
2023-10-09T00:42:16.788Z,101642.66
2023-10-09T00:44:44.969Z,101650.25
2023-10-09T00:47:24.023Z,101658.69
2023-10-09T00:50:00.583Z,101650.69
2023-10-09T00:52:37.729Z,101647.22
2023-10-09T00:55:14.980Z,101654.09
2023-10-09T00:57:51.544Z,101646.81
2023-10-09T01:00:34.023Z,101638.81
2023-10-09T01:03:19.554Z,101629.84
2023-10-09T01:05:57.851Z,101623.59
2023-10-09T01:08:31.951Z,101620.53
2023-10-09T01:11:10.395Z,101619.81
2023-10-09T01:13:42.901Z,101616.03
2023-10-09T01:16:17.935Z,101610.06
2023-10-09T01:18:48.008Z,101611.81
2023-10-09T01:21:16.381Z,101608.34
2023-10-09T01:26:35.906Z,101603.13
2023-10-09T01:29:05.101Z,101602.41
2023-10-09T01:31:38.606Z,101591.38
2023-10-09T01:34:11.095Z,101596.16
2023-10-09T01:36:40.763Z,101594.41
2023-10-09T01:39:22.554Z,101584.09
2023-10-09T01:41:53.191Z,101576.09
2023-10-09T01:44:21.348Z,101577.84
2023-10-09T01:46:53.828Z,101594.28
2023-10-09T01:49:30.920Z,101595.44
2023-10-09T01:52:04.660Z,101593.56
2023-10-09T01:54:38.004Z,101596.16
2023-10-09T01:57:13.521Z,101593.41
2023-10-09T01:59:45.090Z,101603.56
2023-10-09T02:02:27.067Z,101611.00
2023-10-09T02:05:04.970Z,101616.53
2023-10-09T02:07:41.755Z,101608.97
2023-10-09T02:10:22.991Z,101613.31
2023-10-09T02:12:55.031Z,101606.03
2023-10-09T02:15:41.661Z,101607.94
2023-10-09T02:18:20.054Z,101606.91
2023-10-09T02:20:56.712Z,101606.78
2023-10-09T02:23:31.487Z,101604.88
2023-10-09T02:26:03.963Z,101602.66
2023-10-09T02:28:34.101Z,101595.88
2023-10-09T02:31:11.148Z,101600.03
2023-10-09T02:33:40.396Z,101593.50
2023-10-09T02:36:09.468Z,101596.25
2023-10-09T02:38:39.302Z,101589.88
2023-10-09T02:41:23.836Z,101589.72
2023-10-09T02:46:22.373Z,101596.25
2023-10-09T02:48:52.739Z,101598.00
2023-10-09T02:51:33.696Z,101591.59
2023-10-09T02:54:19.184Z,101592.47
2023-10-09T02:56:56.270Z,101596.25
2023-10-09T02:59:24.949Z,101577.78
2023-10-09T03:01:54.919Z,101587.81
2023-10-09T03:04:25.706Z,101586.56
2023-10-09T03:06:54.452Z,101580.56
2023-10-09T03:12:03.852Z,101590.03
2023-10-09T03:14:32.881Z,101582.06
2023-10-09T03:17:01.370Z,101583.06
2023-10-09T03:19:30.797Z,101582.06
2023-10-09T03:21:59.631Z,101567.38
2023-10-09T03:24:28.744Z,101562.88
2023-10-09T03:26:58.251Z,101569.13
2023-10-09T03:29:30.793Z,101565.47
2023-10-09T03:32:01.409Z,101560.09
2023-10-09T03:34:32.293Z,101562.88
2023-10-09T03:37:22.449Z,101567.53
2023-10-09T03:39:56.241Z,101563.16
2023-10-09T03:42:26.024Z,101571.88
2023-10-09T03:44:54.692Z,101560.09
2023-10-09T03:47:25.437Z,101548.34
2023-10-09T03:49:55.726Z,101551.97
2023-10-09T03:52:27.407Z,101550.22
2023-10-09T03:54:56.141Z,101545.91
2023-10-09T03:57:25.928Z,101540.03
2023-10-09T03:59:54.955Z,101542.13
2023-10-09T04:02:26.086Z,101537.44
2023-10-09T04:04:54.365Z,101544.00
2023-10-09T04:07:22.820Z,101547.66
2023-10-09T04:10:03.907Z,101550.41
2023-10-09T04:12:35.279Z,101530.00
2023-10-09T04:15:06.697Z,101534.84
2023-10-09T04:17:35.421Z,101531.91
2023-10-09T04:20:47.860Z,101546.44
2023-10-09T04:23:17.556Z,101537.63
2023-10-09T04:25:51.237Z,101540.19
2023-10-09T04:28:23.505Z,101546.44
2023-10-09T04:30:56.731Z,101533.97
2023-10-09T04:33:41.800Z,101534.53
2023-10-09T04:36:16.851Z,101539.03
2023-10-09T04:38:56.941Z,101541.78
2023-10-09T04:41:34.586Z,101549.19
2023-10-09T04:44:20.327Z,101539.91
2023-10-09T04:47:19.929Z,101534.53
2023-10-09T04:49:53.993Z,101550.56
2023-10-09T04:52:41.482Z,101541.41
2023-10-09T04:55:20.016Z,101545.91
2023-10-09T04:58:02.971Z,101530.19
2023-10-09T05:00:52.534Z,101516.19
2023-10-09T05:03:29.508Z,101520.16
2023-10-09T05:06:00.972Z,101519.16
2023-10-09T05:08:34.094Z,101515.50
2023-10-09T05:11:17.690Z,101522.78
2023-10-09T05:13:46.242Z,101521.03
2023-10-09T05:16:19.429Z,101506.91
2023-10-09T05:18:57.542Z,101516.19
2023-10-09T05:21:38.346Z,101506.22
2023-10-09T05:24:20.619Z,101503.25
2023-10-09T05:27:13.543Z,101508.09
2023-10-09T05:29:49.551Z,101514.66
2023-10-09T05:32:29.189Z,101513.44
2023-10-09T05:35:16.698Z,101519.84
2023-10-09T05:37:49.647Z,101528.13
2023-10-09T05:40:32.184Z,101544.72
2023-10-09T05:43:00.943Z,101566.56
2023-10-09T05:46:05.619Z,101557.50
2023-10-09T05:48:52.528Z,101549.19
2023-10-09T05:51:37.996Z,101559.38
2023-10-09T05:54:23.870Z,101570.56
2023-10-09T05:57:10.248Z,101558.50
2023-10-09T05:59:55.807Z,101560.59
2023-10-09T06:02:48.521Z,101553.16
2023-10-09T06:05:41.851Z,101537.63
2023-10-09T06:08:14.416Z,101542.13
2023-10-09T06:10:43.073Z,101539.34
2023-10-09T06:13:25.520Z,101546.59
2023-10-09T06:16:10.604Z,101560.59
2023-10-09T06:18:44.543Z,101566.09
2023-10-09T06:21:28.157Z,101593.41
2023-10-09T06:24:16.712Z,101590.63
2023-10-09T06:27:13.357Z,101596.31
2023-10-09T06:29:57.243Z,101606.50
2023-10-09T06:32:38.433Z,101616.69
2023-10-09T06:35:19.527Z,101611.00
2023-10-09T06:38:08.811Z,101619.84
2023-10-09T06:40:56.505Z,101628.16
2023-10-09T06:43:31.323Z,101627.28
2023-10-09T06:46:20.334Z,101628.00
2023-10-09T06:48:57.099Z,101634.41
2023-10-09T06:54:17.175Z,101636.69
2023-10-09T06:57:03.104Z,101612.69
2023-10-09T06:59:42.891Z,101609.94
2023-10-09T07:02:28.532Z,101603.38
2023-10-09T07:05:14.149Z,101621.56
2023-10-09T07:07:56.019Z,101625.00
2023-10-09T07:10:34.031Z,101620.19
2023-10-09T07:13:03.737Z,101616.28
2023-10-09T07:15:55.827Z,101621.66
2023-10-09T07:18:42.222Z,101632.69
2023-10-09T07:21:28.200Z,101623.38
2023-10-09T07:24:04.683Z,101616.66
2023-10-09T07:26:48.313Z,101619.13
2023-10-09T07:29:23.127Z,101617.22
2023-10-09T07:31:58.442Z,101616.75
2023-10-09T07:34:49.601Z,101627.50
2023-10-09T07:37:20.389Z,101617.31
2023-10-09T07:39:58.161Z,101622.38
2023-10-09T07:42:44.958Z,101631.09
2023-10-09T07:45:30.313Z,101632.63
2023-10-09T07:48:05.831Z,101619.53
2023-10-09T07:50:42.702Z,101626.31
2023-10-09T07:53:27.509Z,101630.81
2023-10-09T07:55:59.742Z,101631.69
2023-10-09T07:58:31.816Z,101623.97
2023-10-09T08:01:09.677Z,101603.63
2023-10-09T08:03:42.682Z,101595.88
2023-10-09T08:06:31.142Z,101609.69
2023-10-09T08:09:19.799Z,101603.13
2023-10-09T08:12:09.081Z,101613.31
2023-10-09T08:14:47.060Z,101598.84
2023-10-09T08:17:17.299Z,101588.13
2023-10-09T08:19:59.374Z,101602.19
2023-10-09T08:22:44.132Z,101594.19
2023-10-09T08:25:30.183Z,101588.66
2023-10-09T08:28:00.116Z,101638.88
2023-10-09T08:30:42.518Z,101660.84
2023-10-09T08:36:06.275Z,101684.13
2023-10-09T08:38:37.606Z,101688.50
2023-10-09T08:41:17.282Z,101694.72
2023-10-09T08:43:53.599Z,101697.75
2023-10-09T08:46:28.070Z,101688.41
2023-10-09T08:48:58.169Z,101664.22
2023-10-09T08:51:26.958Z,101654.75
2023-10-09T08:53:55.627Z,101640.56
2023-10-09T08:56:25.077Z,101615.50
2023-10-09T08:58:54.294Z,101592.03
2023-10-09T09:01:26.344Z,101598.28
2023-10-09T09:03:57.999Z,101605.88
2023-10-09T09:06:26.392Z,101619.22
2023-10-09T09:09:00.893Z,101600.41
2023-10-09T09:11:36.651Z,101605.78
2023-10-09T09:14:07.570Z,101593.50
2023-10-09T09:16:38.461Z,101570.34
2023-10-09T09:19:19.036Z,101561.16
2023-10-09T09:21:55.875Z,101555.16
2023-10-09T09:24:34.450Z,101549.78
2023-10-09T09:27:14.256Z,101561.38
2023-10-09T09:29:53.663Z,101553.94
2023-10-09T09:32:36.564Z,101560.91
2023-10-09T09:35:05.607Z,101548.97
2023-10-09T09:37:51.559Z,101563.34
2023-10-09T09:40:34.338Z,101572.19
2023-10-09T09:43:07.473Z,101578.94
2023-10-09T09:45:37.029Z,101587.53
2023-10-09T10:08:25.211Z,101585.94
2023-10-09T10:12:15.438Z,101593.59
2023-10-09T10:16:27.586Z,101588.75
2023-10-09T10:24:12.072Z,101588.41
2023-10-09T10:26:42.897Z,101586.22
2023-10-09T10:29:36.271Z,101587.09
2023-10-09T10:38:34.708Z,101606.41
2023-10-09T10:41:30.238Z,101607.78
2023-10-09T10:52:03.473Z,101624.44
2023-10-09T10:58:01.806Z,101626.03
2023-10-09T11:00:47.951Z,101620.34
2023-10-09T11:03:25.258Z,101627.97
2023-10-09T11:05:53.752Z,101623.28
2023-10-09T11:08:32.205Z,101626.09
2023-10-09T11:11:16.947Z,101617.59
2023-10-09T11:13:58.908Z,101614.50
2023-10-09T11:16:44.240Z,101612.56
2023-10-09T11:19:30.387Z,101609.13
2023-10-09T11:25:15.422Z,101612.78
2023-10-09T11:27:52.040Z,101607.06
2023-10-09T11:30:34.009Z,101611.19
2023-10-09T11:33:08.447Z,101613.66
2023-10-09T11:35:35.880Z,101614.34
2023-10-09T11:38:22.165Z,101604.66
2023-10-09T11:41:07.723Z,101612.66
2023-10-09T11:43:55.390Z,101612.28
2023-10-09T11:46:41.336Z,101602.75
2023-10-09T11:49:27.345Z,101598.75
2023-10-09T11:52:27.204Z,101593.00
2023-10-09T11:54:57.458Z,101603.78
2023-10-09T11:57:32.819Z,101599.41
2023-10-09T12:00:01.631Z,101599.41
2023-10-09T12:02:32.498Z,101601.00
2023-10-09T12:05:00.644Z,101599.78
2023-10-09T12:07:28.837Z,101600.47
2023-10-09T12:09:58.447Z,101599.25
2023-10-09T12:12:28.143Z,101601.50
2023-10-09T12:14:56.264Z,101604.97
2023-10-09T12:17:27.517Z,101587.94
2023-10-09T12:19:57.674Z,101591.59
2023-10-09T12:22:28.380Z,101579.09
2023-10-09T12:24:57.755Z,101580.47
2023-10-09T12:27:30.020Z,101576.28
2023-10-09T12:29:59.483Z,101585.69
2023-10-09T12:32:27.402Z,101581.50
2023-10-09T12:34:57.488Z,101582.19
2023-10-09T12:37:25.565Z,101570.91
2023-10-09T12:39:57.118Z,101568.78
2023-10-09T12:42:25.084Z,101564.97
2023-10-09T12:44:58.946Z,101570.91
2023-10-09T12:47:27.866Z,101557.19
2023-10-09T12:49:55.937Z,101567.09
2023-10-09T12:52:30.842Z,101577.13
2023-10-09T12:54:59.153Z,101580.78
2023-10-09T12:57:27.232Z,101574.19
2023-10-09T12:59:57.079Z,101566.38
2023-10-09T13:02:30.700Z,101573.84
2023-10-09T13:05:01.142Z,101579.22
2023-10-09T13:07:29.240Z,101581.13
2023-10-09T13:10:10.478Z,101579.03
2023-10-09T13:12:42.031Z,101587.38
2023-10-09T13:15:12.795Z,101592.72
2023-10-09T13:17:41.098Z,101601.94
2023-10-09T13:20:14.380Z,101594.47
2023-10-09T13:22:43.268Z,101600.91
2023-10-09T13:25:31.419Z,101595.16
2023-10-09T13:28:05.119Z,101597.25
2023-10-09T13:30:41.293Z,101595.16
2023-10-09T13:33:18.207Z,101588.91
2023-10-09T13:35:51.903Z,101585.28
2023-10-09T13:38:20.428Z,101582.31
2023-10-09T13:40:49.712Z,101586.13
2023-10-09T13:43:18.755Z,101585.09
2023-10-09T13:45:50.931Z,101576.59
2023-10-09T13:48:22.251Z,101581.44
2023-10-09T13:50:50.601Z,101580.41
2023-10-09T13:53:18.913Z,101572.06
2023-10-09T13:55:48.305Z,101579.53
2023-10-09T13:58:21.937Z,101575.72
2023-10-09T14:00:54.506Z,101577.47
2023-10-09T14:03:24.819Z,101570.50
2023-10-09T14:05:58.157Z,101578.66
2023-10-09T14:08:27.385Z,101583.19
2023-10-09T14:10:55.866Z,101579.38
2023-10-09T14:13:29.723Z,101580.06
2023-10-09T14:16:01.229Z,101593.75
2023-10-09T14:18:31.117Z,101591.34
2023-10-09T14:21:05.726Z,101586.09
2023-10-09T14:23:35.918Z,101579.84
2023-10-09T14:26:04.264Z,101576.03
2023-10-09T14:28:32.229Z,101579.69
2023-10-09T14:31:05.751Z,101572.72
2023-10-09T14:33:37.699Z,101569.25
2023-10-09T14:36:08.495Z,101578.63
2023-10-09T14:38:39.557Z,101572.72
2023-10-09T14:41:12.868Z,101564.22
2023-10-09T14:43:42.061Z,101570.44
2023-10-09T14:46:15.713Z,101563.50
2023-10-09T14:48:47.106Z,101560.00
2023-10-09T14:51:15.454Z,101564.88
2023-10-09T14:53:43.388Z,101566.25
2023-10-09T14:58:45.975Z,101561.56
2023-10-09T15:01:19.710Z,101562.06
2023-10-09T15:03:49.123Z,101551.16
2023-10-09T15:06:18.238Z,101552.84
2023-10-09T15:08:46.765Z,101553.72
2023-10-09T15:11:15.711Z,101546.94
2023-10-09T15:13:43.684Z,101549.72
2023-10-09T15:16:12.698Z,101554.25
2023-10-09T15:18:42.035Z,101551.09
2023-10-09T15:21:10.640Z,101551.28
2023-10-09T15:23:38.629Z,101562.22
2023-10-09T15:26:08.063Z,101568.44
2023-10-09T15:28:36.355Z,101565.88
2023-10-09T15:31:05.037Z,101563.94
2023-10-09T15:33:36.221Z,101559.25
2023-10-09T15:36:14.014Z,101566.34
2023-10-09T15:38:42.083Z,101572.47
2023-10-09T15:41:10.229Z,101574.22
2023-10-09T15:43:38.467Z,101567.56
2023-10-09T15:46:15.435Z,101568.09
2023-10-09T15:48:44.948Z,101573.13
2023-10-09T15:51:15.434Z,101578.53
2023-10-09T15:53:44.416Z,101574.00
2023-10-09T15:56:14.170Z,101569.50
2023-10-09T15:58:44.101Z,101569.69
2023-10-09T16:01:15.038Z,101568.66
2023-10-09T16:03:44.182Z,101568.66
2023-10-09T16:06:13.913Z,101569.88
2023-10-09T16:08:43.051Z,101583.94
2023-10-09T16:11:12.953Z,101579.59
2023-10-09T16:13:42.898Z,101578.06
2023-10-09T16:16:10.802Z,101578.94
2023-10-09T16:18:40.250Z,101575.47
2023-10-09T16:21:13.625Z,101582.06
2023-10-09T16:23:43.660Z,101579.47
2023-10-09T16:26:12.368Z,101580.91
2023-10-09T16:28:41.381Z,101584.72
2023-10-09T16:31:14.974Z,101578.63
2023-10-09T16:33:43.228Z,101589.94
2023-10-09T16:36:10.481Z,101589.25
2023-10-09T16:38:40.454Z,101591.34
2023-10-09T16:41:10.126Z,101597.78
2023-10-09T16:43:42.453Z,101597.41
2023-10-09T16:46:10.693Z,101607.38
2023-10-09T16:48:40.695Z,101604.91
2023-10-09T16:51:10.050Z,101604.56
2023-10-09T16:53:39.921Z,101609.44
2023-10-09T16:56:11.970Z,101603.00
2023-10-09T16:58:41.014Z,101608.25
2023-10-09T17:01:11.885Z,101606.47
2023-10-09T17:03:43.644Z,101607.69
2023-10-09T17:06:12.433Z,101620.22
2023-10-09T17:08:43.930Z,101616.38
2023-10-09T17:11:14.243Z,101616.91
2023-10-09T17:13:45.656Z,101627.16
2023-10-09T17:16:18.796Z,101620.94
2023-10-09T17:18:48.826Z,101624.91
2023-10-09T17:21:17.795Z,101631.50
2023-10-09T17:23:47.988Z,101633.78
2023-10-09T17:26:19.545Z,101636.56
2023-10-09T17:28:48.275Z,101638.28
2023-10-09T17:31:21.019Z,101636.38
2023-10-09T17:33:50.025Z,101632.94
2023-10-09T17:36:18.761Z,101641.44
2023-10-09T17:38:50.835Z,101639.84
2023-10-09T17:41:22.518Z,101634.47
2023-10-09T17:43:51.599Z,101650.63
2023-10-09T17:46:20.116Z,101641.44
2023-10-09T17:48:48.636Z,101648.91
2023-10-09T17:51:19.478Z,101649.94
2023-10-09T17:53:47.928Z,101646.44
2023-10-09T17:56:17.683Z,101647.50
2023-10-09T17:58:51.510Z,101658.59
2023-10-09T18:01:20.314Z,101658.09
2023-10-09T18:03:48.671Z,101661.03
2023-10-09T18:06:18.031Z,101661.19
2023-10-09T18:08:47.990Z,101665.00
2023-10-09T18:11:16.425Z,101661.38
2023-10-09T18:13:44.488Z,101662.41
2023-10-09T18:16:13.418Z,101666.91
2023-10-09T18:18:42.191Z,101676.47
2023-10-09T18:21:11.284Z,101674.56
2023-10-09T18:23:45.463Z,101681.34
2023-10-09T18:26:15.565Z,101690.69
2023-10-09T18:28:45.922Z,101689.13
2023-10-09T18:31:17.558Z,101693.47
2023-10-09T18:33:46.939Z,101678.03
2023-10-09T18:36:14.848Z,101682.88
2023-10-09T18:38:45.887Z,101682.03
2023-10-09T18:41:14.394Z,101681.16
2023-10-09T18:43:43.182Z,101684.97
2023-10-09T18:46:12.809Z,101681.31
2023-10-09T18:48:47.070Z,101681.31
2023-10-09T18:51:18.934Z,101679.75
2023-10-09T18:53:47.835Z,101682.69
2023-10-09T18:56:16.643Z,101674.38
2023-10-09T18:58:45.112Z,101673.31
2023-10-09T19:01:15.033Z,101661.53
2023-10-09T19:03:47.899Z,101669.69
2023-10-09T19:06:18.789Z,101667.28
2023-10-09T19:08:49.343Z,101671.75
2023-10-09T19:11:21.558Z,101664.63
2023-10-09T19:13:49.935Z,101673.13
2023-10-09T19:16:18.891Z,101670.19
2023-10-09T19:18:48.386Z,101659.94
2023-10-09T19:21:17.780Z,101669.47
2023-10-09T19:23:48.811Z,101664.97
2023-10-09T19:26:18.817Z,101671.53
2023-10-09T19:28:49.003Z,101665.13
2023-10-09T19:31:18.030Z,101670.88
2023-10-09T19:33:46.134Z,101674.69
2023-10-09T19:36:16.257Z,101663.59
2023-10-09T19:38:51.236Z,101679.53
2023-10-09T19:41:20.807Z,101673.28
2023-10-09T19:43:49.075Z,101673.28
2023-10-09T19:46:17.935Z,101679.84
2023-10-09T19:48:47.274Z,101680.88
2023-10-09T19:51:18.824Z,101688.19
2023-10-09T19:53:47.926Z,101677.78
2023-10-09T19:56:19.564Z,101680.38
2023-10-09T19:58:48.348Z,101680.88
2023-10-09T20:01:16.448Z,101683.66
2023-10-09T20:03:44.675Z,101682.97
2023-10-09T20:06:16.346Z,101682.97
2023-10-09T20:08:45.931Z,101689.72
2023-10-09T20:11:14.492Z,101683.47
2023-10-09T20:13:44.170Z,101687.28
2023-10-09T20:16:12.844Z,101684.66
2023-10-09T20:18:43.613Z,101691.44
2023-10-09T20:21:12.550Z,101688.81
2023-10-09T20:23:41.132Z,101697.47
2023-10-09T20:26:15.473Z,101701.09
2023-10-09T20:28:44.928Z,101706.16
2023-10-09T20:31:13.378Z,101711.84
2023-10-09T20:33:43.682Z,101705.59
2023-10-09T20:36:16.724Z,101712.00
2023-10-09T20:38:47.948Z,101715.09
2023-10-09T20:41:18.567Z,101714.06
2023-10-09T20:43:46.653Z,101716.34
2023-10-09T20:46:16.802Z,101717.38
2023-10-09T20:48:46.240Z,101717.38
2023-10-09T20:51:16.211Z,101713.00
2023-10-09T20:53:44.736Z,101713.00
2023-10-09T20:56:12.747Z,101718.72
2023-10-09T20:58:42.353Z,101717.53
2023-10-09T21:01:16.043Z,101715.94
2023-10-09T21:03:45.795Z,101711.44
2023-10-09T21:06:14.270Z,101708.84
2023-10-09T21:08:42.316Z,101715.44
2023-10-09T21:11:11.231Z,101714.56
2023-10-09T21:13:39.783Z,101712.81
2023-10-09T21:16:13.224Z,101707.13
2023-10-09T21:18:42.080Z,101719.41
2023-10-09T21:21:10.340Z,101714.88
2023-10-09T21:23:38.478Z,101716.78
2023-10-09T21:26:06.674Z,101715.91
2023-10-09T21:28:36.493Z,101705.84
2023-10-09T21:31:05.828Z,101704.13
2023-10-09T21:33:35.402Z,101709.50
2023-10-09T21:36:04.598Z,101709.84
2023-10-09T21:38:32.527Z,101705.34
2023-10-09T21:41:02.324Z,101709.84
2023-10-09T21:43:32.243Z,101703.59
2023-10-09T21:46:00.386Z,101715.56
2023-10-09T21:48:28.292Z,101713.97
2023-10-09T21:50:57.650Z,101709.13
2023-10-09T21:53:28.746Z,101703.88
2023-10-09T21:56:04.640Z,101697.34
2023-10-09T21:58:32.655Z,101701.47
2023-10-09T22:01:04.351Z,101695.03
2023-10-09T22:03:32.737Z,101700.03
2023-10-09T22:06:02.034Z,101698.84
2023-10-09T22:08:30.029Z,101701.94
2023-10-09T22:10:58.014Z,101701.06
2023-10-09T22:13:27.484Z,101702.28
2023-10-09T22:15:55.448Z,101694.28
2023-10-09T22:18:25.101Z,101691.69
2023-10-09T22:20:55.328Z,101694.44
2023-10-09T22:23:32.587Z,101694.59
2023-10-09T22:26:02.737Z,101688.53
2023-10-09T22:28:31.486Z,101693.22
2023-10-09T22:31:04.678Z,101696.16
2023-10-09T22:33:46.522Z,101701.84
2023-10-09T22:36:28.527Z,101704.09
2023-10-09T22:39:06.426Z,101694.03
2023-10-09T22:41:35.755Z,101694.34
2023-10-09T22:44:11.500Z,101695.22
2023-10-09T22:46:41.588Z,101692.81
2023-10-09T22:49:15.841Z,101694.88
2023-10-09T22:51:51.256Z,101695.91
2023-10-09T22:54:31.393Z,101696.91
2023-10-09T22:56:59.585Z,101693.78
2023-10-09T22:59:28.594Z,101699.31
2023-10-09T23:01:58.029Z,101700.50
2023-10-09T23:04:38.414Z,101695.13
2023-10-09T23:07:15.170Z,101704.63
2023-10-09T23:09:51.939Z,101706.38
2023-10-09T23:12:24.265Z,101695.63
2023-10-09T23:14:53.812Z,101694.03
2023-10-09T23:17:43.087Z,101701.31
2023-10-09T23:20:17.511Z,101693.19
2023-10-09T23:22:51.080Z,101697.84
2023-10-09T23:25:34.459Z,101693.19
2023-10-09T23:28:25.155Z,101693.69
2023-10-09T23:30:54.166Z,101688.44
2023-10-09T23:33:22.598Z,101692.09
2023-10-09T23:35:56.929Z,101690.34
2023-10-09T23:38:35.531Z,101698.97
2023-10-09T23:41:11.281Z,101695.50
2023-10-09T23:43:47.135Z,101695.09
2023-10-09T23:46:18.202Z,101701.81
2023-10-09T23:48:49.825Z,101702.44
2023-10-09T23:51:20.642Z,101699.69
2023-10-09T23:53:53.913Z,101690.69
2023-10-09T23:56:37.253Z,101693.59
2023-10-09T23:59:12.256Z,101705.16
